sensor_id;sensor_type;location;lat;lon;timestamp;pressure;altitude;pressure_sealevel;temperature;humidity
20444;BME280;10381;53.730;10.010;2023-05-01T00:01:03;101649.88;;;2.75;100.00
20444;BME280;10381;53.730;10.010;2023-05-01T00:05:07;101648.22;;;2.52;100.00
20444;BME280;10381;53.730;10.010;2023-05-01T00:09:08;101639.66;;;2.26;100.00
20444;BME280;10381;53.730;10.010;2023-05-01T00:13:09;101635.38;;;2.02;100.00
20444;BME280;10381;53.730;10.010;2023-05-01T00:17:09;101640.13;;;1.92;100.00
20444;BME280;10381;53.730;10.010;2023-05-01T00:21:10;101627.34;;;1.84;100.00
20444;BME280;10381;53.730;10.010;2023-05-01T00:25:10;101626.28;;;2.12;100.00
20444;BME280;10381;53.730;10.010;2023-05-01T00:29:10;101621.34;;;2.04;100.00
20444;BME280;10381;53.730;10.010;2023-05-01T00:33:11;101616.06;;;1.84;100.00
20444;BME280;10381;53.730;10.010;2023-05-01T00:37:12;101619.03;;;1.75;100.00
20444;BME280;10381;53.730;10.010;2023-05-01T00:41:12;101611.59;;;1.64;100.00
20444;BME280;10381;53.730;10.010;2023-05-01T00:45:12;101609.63;;;1.92;100.00
20444;BME280;10381;53.730;10.010;2023-05-01T00:49:13;101605.25;;;1.93;100.00
20444;BME280;10381;53.730;10.010;2023-05-01T00:53:14;101604.03;;;2.02;100.00
20444;BME280;10381;53.730;10.010;2023-05-01T00:57:14;101600.84;;;1.72;100.00
20444;BME280;10381;53.730;10.010;2023-05-01T01:01:15;101596.78;;;1.64;100.00
20444;BME280;10381;53.730;10.010;2023-05-01T01:05:15;101600.91;;;1.46;100.00
20444;BME280;10381;53.730;10.010;2023-05-01T01:09:37;101589.06;;;1.38;100.00
20444;BME280;10381;53.730;10.010;2023-05-01T01:13:46;101586.34;;;1.41;100.00
20444;BME280;10381;53.730;10.010;2023-05-01T01:22:28;101587.88;;;1.23;100.00
20444;BME280;10381;53.730;10.010;2023-05-01T01:31:01;101583.97;;;1.11;100.00
20444;BME280;10381;53.730;10.010;2023-05-01T01:35:07;101581.44;;;1.32;100.00
20444;BME280;10381;53.730;10.010;2023-05-01T01:39:15;101586.69;;;1.32;100.00
20444;BME280;10381;53.730;10.010;2023-05-01T01:43:21;101581.34;;;1.11;100.00
20444;BME280;10381;53.730;10.010;2023-05-01T01:47:25;101573.22;;;0.95;100.00
20444;BME280;10381;53.730;10.010;2023-05-01T01:51:27;101567.72;;;1.03;100.00
20444;BME280;10381;53.730;10.010;2023-05-01T01:55:30;101565.63;;;1.13;100.00
20444;BME280;10381;53.730;10.010;2023-05-01T01:59:33;101570.63;;;0.94;100.00
20444;BME280;10381;53.730;10.010;2023-05-01T02:03:34;101566.63;;;0.85;100.00
20444;BME280;10381;53.730;10.010;2023-05-01T02:07:39;101556.50;;;0.76;100.00
20444;BME280;10381;53.730;10.010;2023-05-01T02:11:41;101554.53;;;0.82;100.00
20444;BME280;10381;53.730;10.010;2023-05-01T02:15:43;101561.00;;;0.72;100.00
20444;BME280;10381;53.730;10.010;2023-05-01T02:19:45;101556.78;;;0.68;100.00
20444;BME280;10381;53.730;10.010;2023-05-01T02:23:45;101549.81;;;0.69;100.00
20444;BME280;10381;53.730;10.010;2023-05-01T02:27:49;101545.34;;;0.72;100.00
20444;BME280;10381;53.730;10.010;2023-05-01T02:31:52;101541.28;;;0.63;100.00
20444;BME280;10381;53.730;10.010;2023-05-01T02:35:52;101532.66;;;0.61;100.00
20444;BME280;10381;53.730;10.010;2023-05-01T02:39:53;101526.53;;;0.62;100.00
20444;BME280;10381;53.730;10.010;2023-05-01T02:43:59;101528.97;;;0.67;100.00
20444;BME280;10381;53.730;10.010;2023-05-01T02:48:02;101524.63;;;0.68;100.00
20444;BME280;10381;53.730;10.010;2023-05-01T02:52:04;101516.69;;;0.71;100.00
20444;BME280;10381;53.730;10.010;2023-05-01T02:56:04;101512.97;;;0.78;100.00
20444;BME280;10381;53.730;10.010;2023-05-01T03:00:07;101508.88;;;0.71;100.00
20444;BME280;10381;53.730;10.010;2023-05-01T03:04:12;101514.22;;;0.68;100.00
20444;BME280;10381;53.730;10.010;2023-05-01T03:08:12;101497.81;;;0.64;100.00
20444;BME280;10381;53.730;10.010;2023-05-01T03:12:13;101489.84;;;0.67;100.00
20444;BME280;10381;53.730;10.010;2023-05-01T03:16:13;101496.56;;;0.74;100.00
20444;BME280;10381;53.730;10.010;2023-05-01T03:20:13;101499.44;;;0.92;100.00
20444;BME280;10381;53.730;10.010;2023-05-01T03:24:15;101489.13;;;1.11;100.00
20444;BME280;10381;53.730;10.010;2023-05-01T03:28:15;101486.22;;;0.96;100.00
20444;BME280;10381;53.730;10.010;2023-05-01T03:32:16;101481.84;;;0.97;100.00
20444;BME280;10381;53.730;10.010;2023-05-01T03:36:17;101483.41;;;1.01;100.00
20444;BME280;10381;53.730;10.010;2023-05-01T03:40:17;101479.06;;;1.01;100.00
20444;BME280;10381;53.730;10.010;2023-05-01T03:44:18;101477.19;;;1.05;100.00
20444;BME280;10381;53.730;10.010;2023-05-01T03:48:19;101471.50;;;1.17;100.00
20444;BME280;10381;53.730;10.010;2023-05-01T03:52:19;101468.53;;;1.26;100.00
20444;BME280;10381;53.730;10.010;2023-05-01T03:56:20;101472.06;;;1.47;100.00
20444;BME280;10381;53.730;10.010;2023-05-01T04:00:20;101465.25;;;1.65;100.00
20444;BME280;10381;53.730;10.010;2023-05-01T04:04:20;101458.91;;;1.93;100.00
20444;BME280;10381;53.730;10.010;2023-05-01T04:08:21;101458.47;;;2.24;100.00
20444;BME280;10381;53.730;10.010;2023-05-01T04:12:21;101446.34;;;2.63;100.00
20444;BME280;10381;53.730;10.010;2023-05-01T04:16:21;101443.03;;;3.16;100.00
20444;BME280;10381;53.730;10.010;2023-05-01T04:20:21;101442.34;;;3.49;100.00
20444;BME280;10381;53.730;10.010;2023-05-01T04:24:22;101432.03;;;3.63;100.00
20444;BME280;10381;53.730;10.010;2023-05-01T04:28:22;101410.34;;;3.78;100.00
20444;BME280;10381;53.730;10.010;2023-05-01T04:32:23;101402.63;;;3.93;100.00
20444;BME280;10381;53.730;10.010;2023-05-01T04:36:23;101393.69;;;4.30;100.00
20444;BME280;10381;53.730;10.010;2023-05-01T04:40:23;101385.03;;;4.45;100.00
20444;BME280;10381;53.730;10.010;2023-05-01T04:44:24;101375.38;;;4.46;100.00
20444;BME280;10381;53.730;10.010;2023-05-01T04:48:24;101376.56;;;4.56;100.00
20444;BME280;10381;53.730;10.010;2023-05-01T04:52:24;101370.19;;;4.94;100.00
20444;BME280;10381;53.730;10.010;2023-05-01T04:56:25;101374.56;;;5.25;100.00
20444;BME280;10381;53.730;10.010;2023-05-01T05:00:28;101367.84;;;5.19;100.00
20444;BME280;10381;53.730;10.010;2023-05-01T05:04:29;101369.41;;;5.53;100.00
20444;BME280;10381;53.730;10.010;2023-05-01T05:08:30;101369.13;;;6.33;100.00
20444;BME280;10381;53.730;10.010;2023-05-01T05:12:30;101369.69;;;6.52;100.00
20444;BME280;10381;53.730;10.010;2023-05-01T05:16:30;101366.94;;;5.96;100.00
20444;BME280;10381;53.730;10.010;2023-05-01T05:20:31;101370.06;;;5.87;100.00
20444;BME280;10381;53.730;10.010;2023-05-01T05:24:31;101366.00;;;6.69;100.00
20444;BME280;10381;53.730;10.010;2023-05-01T05:28:31;101362.28;;;6.86;100.00
20444;BME280;10381;53.730;10.010;2023-05-01T05:32:32;101364.00;;;6.58;100.00
20444;BME280;10381;53.730;10.010;2023-05-01T05:36:32;101370.09;;;6.73;100.00
20444;BME280;10381;53.730;10.010;2023-05-01T05:40:33;101362.81;;;6.64;100.00
20444;BME280;10381;53.730;10.010;2023-05-01T05:44:33;101354.53;;;6.97;100.00
20444;BME280;10381;53.730;10.010;2023-05-01T05:48:35;101356.44;;;7.22;100.00
20444;BME280;10381;53.730;10.010;2023-05-01T05:52:35;101345.31;;;7.97;100.00
20444;BME280;10381;53.730;10.010;2023-05-01T05:56:36;101347.81;;;7.60;100.00
20444;BME280;10381;53.730;10.010;2023-05-01T06:00:36;101352.81;;;8.16;100.00
20444;BME280;10381;53.730;10.010;2023-05-01T06:04:36;101346.34;;;7.95;100.00
20444;BME280;10381;53.730;10.010;2023-05-01T06:08:37;101347.66;;;8.77;100.00
20444;BME280;10381;53.730;10.010;2023-05-01T06:12:37;101330.53;;;8.20;100.00
20444;BME280;10381;53.730;10.010;2023-05-01T06:16:38;101342.69;;;8.72;100.00
20444;BME280;10381;53.730;10.010;2023-05-01T06:20:38;101328.41;;;8.88;100.00
20444;BME280;10381;53.730;10.010;2023-05-01T06:24:39;101326.78;;;9.69;100.00
20444;BME280;10381;53.730;10.010;2023-05-01T06:28:39;101332.78;;;9.24;100.00
20444;BME280;10381;53.730;10.010;2023-05-01T06:32:39;101337.94;;;9.26;100.00
20444;BME280;10381;53.730;10.010;2023-05-01T06:36:42;101335.94;;;9.05;100.00
20444;BME280;10381;53.730;10.010;2023-05-01T06:40:42;101332.59;;;9.38;100.00
20444;BME280;10381;53.730;10.010;2023-05-01T06:44:46;101321.66;;;9.90;100.00
20444;BME280;10381;53.730;10.010;2023-05-01T06:48:46;101327.34;;;10.08;100.00
20444;BME280;10381;53.730;10.010;2023-05-01T06:52:46;101329.81;;;9.75;100.00
20444;BME280;10381;53.730;10.010;2023-05-01T06:56:47;101319.72;;;9.80;100.00
20444;BME280;10381;53.730;10.010;2023-05-01T07:00:47;101310.84;;;9.93;100.00
20444;BME280;10381;53.730;10.010;2023-05-01T07:04:47;101304.97;;;10.68;100.00
20444;BME280;10381;53.730;10.010;2023-05-01T07:08:48;101306.06;;;10.43;100.00
20444;BME280;10381;53.730;10.010;2023-05-01T07:12:48;101303.41;;;10.54;100.00
20444;BME280;10381;53.730;10.010;2023-05-01T07:16:49;101295.00;;;10.93;100.00
20444;BME280;10381;53.730;10.010;2023-05-01T07:20:49;101294.19;;;11.13;100.00
20444;BME280;10381;53.730;10.010;2023-05-01T07:24:49;101286.69;;;11.18;100.00
20444;BME280;10381;53.730;10.010;2023-05-01T07:28:50;101286.34;;;11.86;100.00
20444;BME280;10381;53.730;10.010;2023-05-01T07:32:50;101276.69;;;11.64;100.00
20444;BME280;10381;53.730;10.010;2023-05-01T07:36:50;101272.69;;;11.90;100.00
20444;BME280;10381;53.730;10.010;2023-05-01T07:40:54;101267.16;;;12.44;100.00
20444;BME280;10381;53.730;10.010;2023-05-01T07:44:55;101264.75;;;12.41;96.37
20444;BME280;10381;53.730;10.010;2023-05-01T07:48:56;101259.63;;;12.49;87.61
20444;BME280;10381;53.730;10.010;2023-05-01T07:52:56;101252.78;;;12.56;96.27
20444;BME280;10381;53.730;10.010;2023-05-01T07:56:56;101252.78;;;12.46;90.67
20444;BME280;10381;53.730;10.010;2023-05-01T08:00:57;101252.66;;;12.67;85.84
20444;BME280;10381;53.730;10.010;2023-05-01T08:04:57;101249.16;;;14.29;74.31
20444;BME280;10381;53.730;10.010;2023-05-01T08:08:57;101251.72;;;14.21;73.85
20444;BME280;10381;53.730;10.010;2023-05-01T08:12:58;101243.00;;;13.15;75.12
20444;BME280;10381;53.730;10.010;2023-05-01T08:16:58;101246.97;;;13.30;71.14
20444;BME280;10381;53.730;10.010;2023-05-01T08:20:58;101241.88;;;13.47;74.28
20444;BME280;10381;53.730;10.010;2023-05-01T08:24:59;101245.41;;;14.22;71.09
20444;BME280;10381;53.730;10.010;2023-05-01T08:28:59;101238.25;;;13.48;69.61
20444;BME280;10381;53.730;10.010;2023-05-01T08:32:59;101235.06;;;13.81;66.56
20444;BME280;10381;53.730;10.010;2023-05-01T08:37:00;101240.41;;;14.37;67.46
20444;BME280;10381;53.730;10.010;2023-05-01T08:41:00;101237.41;;;14.22;64.97
20444;BME280;10381;53.730;10.010;2023-05-01T08:45:04;101226.88;;;13.55;62.94
20444;BME280;10381;53.730;10.010;2023-05-01T08:49:08;101225.19;;;13.92;64.57
20444;BME280;10381;53.730;10.010;2023-05-01T08:53:10;101226.00;;;14.02;63.62
20444;BME280;10381;53.730;10.010;2023-05-01T08:57:11;101212.47;;;13.48;60.95
20444;BME280;10381;53.730;10.010;2023-05-01T09:01:14;101207.78;;;14.25;62.47
20444;BME280;10381;53.730;10.010;2023-05-01T09:05:15;101212.78;;;14.10;60.65
20444;BME280;10381;53.730;10.010;2023-05-01T09:09:16;101212.94;;;14.36;60.30
20444;BME280;10381;53.730;10.010;2023-05-01T09:13:16;101202.66;;;13.86;60.34
20444;BME280;10381;53.730;10.010;2023-05-01T09:17:17;101197.63;;;14.11;61.71
20444;BME280;10381;53.730;10.010;2023-05-01T09:21:17;101190.91;;;14.06;62.55
20444;BME280;10381;53.730;10.010;2023-05-01T09:25:18;101184.44;;;14.09;63.48
20444;BME280;10381;53.730;10.010;2023-05-01T09:29:37;101177.81;;;13.95;61.40
20444;BME280;10381;53.730;10.010;2023-05-01T09:33:50;101171.63;;;14.40;63.73
20444;BME280;10381;53.730;10.010;2023-05-01T09:37:53;101175.19;;;14.59;63.33
20444;BME280;10381;53.730;10.010;2023-05-01T09:41:53;101185.78;;;15.65;59.85
20444;BME280;10381;53.730;10.010;2023-05-01T09:46:05;101178.53;;;14.97;55.55
20444;BME280;10381;53.730;10.010;2023-05-01T09:50:06;101164.34;;;14.78;56.81
20444;BME280;10381;53.730;10.010;2023-05-01T09:54:17;101167.81;;;15.15;54.24
20444;BME280;10381;53.730;10.010;2023-05-01T09:58:26;101160.13;;;15.38;56.58
20444;BME280;10381;53.730;10.010;2023-05-01T10:02:29;101163.69;;;15.20;54.09
20444;BME280;10381;53.730;10.010;2023-05-01T10:06:30;101161.75;;;14.51;54.79
20444;BME280;10381;53.730;10.010;2023-05-01T10:10:30;101156.34;;;15.22;56.71
20444;BME280;10381;53.730;10.010;2023-05-01T10:14:31;101158.25;;;15.90;57.67
20444;BME280;10381;53.730;10.010;2023-05-01T10:18:37;101145.97;;;15.19;54.63
20444;BME280;10381;53.730;10.010;2023-05-01T10:22:38;101151.75;;;15.93;54.45
20444;BME280;10381;53.730;10.010;2023-05-01T10:26:39;101141.81;;;16.44;56.33
20444;BME280;10381;53.730;10.010;2023-05-01T10:30:42;101132.47;;;14.95;55.18
20444;BME280;10381;53.730;10.010;2023-05-01T10:34:47;101121.75;;;15.12;53.91
20444;BME280;10381;53.730;10.010;2023-05-01T10:38:50;101128.03;;;15.98;54.49
20444;BME280;10381;53.730;10.010;2023-05-01T10:43:21;101116.50;;;15.97;55.30
20444;BME280;10381;53.730;10.010;2023-05-01T10:51:29;101103.03;;;16.56;47.66
20444;BME280;10381;53.730;10.010;2023-05-01T10:55:32;101105.75;;;16.65;46.72
20444;BME280;10381;53.730;10.010;2023-05-01T11:04:01;101093.97;;;17.71;45.67
20444;BME280;10381;53.730;10.010;2023-05-01T11:08:29;101086.66;;;17.56;47.82
20444;BME280;10381;53.730;10.010;2023-05-01T11:16:47;101080.66;;;16.98;48.18
20444;BME280;10381;53.730;10.010;2023-05-01T11:20:48;101076.50;;;16.55;47.17
20444;BME280;10381;53.730;10.010;2023-05-01T11:24:49;101068.28;;;16.81;48.22
20444;BME280;10381;53.730;10.010;2023-05-01T11:28:53;101057.00;;;18.58;46.49
20444;BME280;10381;53.730;10.010;2023-05-01T11:32:53;101055.19;;;17.58;46.98
20444;BME280;10381;53.730;10.010;2023-05-01T11:36:53;101055.09;;;17.35;48.57
20444;BME280;10381;53.730;10.010;2023-05-01T11:40:57;101037.53;;;16.44;49.04
20444;BME280;10381;53.730;10.010;2023-05-01T11:45:08;101043.16;;;15.84;48.13
20444;BME280;10381;53.730;10.010;2023-05-01T11:49:11;101041.75;;;18.73;46.09
20444;BME280;10381;53.730;10.010;2023-05-01T11:53:13;101033.13;;;18.48;44.13
20444;BME280;10381;53.730;10.010;2023-05-01T11:57:14;101030.56;;;20.60;42.28
20444;BME280;10381;53.730;10.010;2023-05-01T12:01:15;101027.09;;;19.29;46.18
20444;BME280;10381;53.730;10.010;2023-05-01T12:05:16;101019.66;;;18.71;44.00
20444;BME280;10381;53.730;10.010;2023-05-01T12:09:21;101014.03;;;17.74;47.37
20444;BME280;10381;53.730;10.010;2023-05-01T12:13:23;101020.28;;;18.59;47.90
20444;BME280;10381;53.730;10.010;2023-05-01T12:17:23;101010.34;;;18.82;47.26
20444;BME280;10381;53.730;10.010;2023-05-01T12:21:24;101002.59;;;18.12;46.08
20444;BME280;10381;53.730;10.010;2023-05-01T12:25:34;101001.19;;;19.72;47.17
20444;BME280;10381;53.730;10.010;2023-05-01T12:29:41;101001.19;;;19.72;43.86
20444;BME280;10381;53.730;10.010;2023-05-01T12:33:54;100992.16;;;17.62;44.16
20444;BME280;10381;53.730;10.010;2023-05-01T12:37:56;100988.41;;;18.93;44.24
20444;BME280;10381;53.730;10.010;2023-05-01T12:41:57;100991.81;;;19.32;43.57
20444;BME280;10381;53.730;10.010;2023-05-01T12:45:59;100985.78;;;19.30;42.12
20444;BME280;10381;53.730;10.010;2023-05-01T12:50:01;100973.81;;;18.43;44.99
20444;BME280;10381;53.730;10.010;2023-05-01T12:54:02;100973.84;;;18.20;45.88
20444;BME280;10381;53.730;10.010;2023-05-01T12:58:02;100974.50;;;17.76;45.78
20444;BME280;10381;53.730;10.010;2023-05-01T13:02:06;100969.81;;;17.78;46.53
20444;BME280;10381;53.730;10.010;2023-05-01T13:06:07;100968.75;;;18.63;46.93
20444;BME280;10381;53.730;10.010;2023-05-01T13:10:09;100964.59;;;18.90;43.65
20444;BME280;10381;53.730;10.010;2023-05-01T13:14:09;100954.78;;;19.12;45.52
20444;BME280;10381;53.730;10.010;2023-05-01T13:18:11;100954.31;;;18.64;43.85
20444;BME280;10381;53.730;10.010;2023-05-01T13:22:11;100954.88;;;19.98;43.25
20444;BME280;10381;53.730;10.010;2023-05-01T13:26:12;100956.41;;;19.28;44.19
20444;BME280;10381;53.730;10.010;2023-05-01T13:30:12;100945.78;;;18.76;43.01
20444;BME280;10381;53.730;10.010;2023-05-01T13:34:16;100944.88;;;18.68;43.47
20444;BME280;10381;53.730;10.010;2023-05-01T13:38:18;100948.25;;;18.33;42.51
20444;BME280;10381;53.730;10.010;2023-05-01T13:42:23;100947.22;;;18.71;43.66
20444;BME280;10381;53.730;10.010;2023-05-01T13:46:27;100931.28;;;19.36;42.79
20444;BME280;10381;53.730;10.010;2023-05-01T13:50:27;100935.19;;;19.91;41.51
20444;BME280;10381;53.730;10.010;2023-05-01T13:54:28;100930.16;;;18.49;42.72
20444;BME280;10381;53.730;10.010;2023-05-01T13:58:28;100925.81;;;18.63;42.26
20444;BME280;10381;53.730;10.010;2023-05-01T14:02:31;100927.44;;;18.35;43.11
20444;BME280;10381;53.730;10.010;2023-05-01T14:06:33;100919.91;;;18.53;44.86
20444;BME280;10381;53.730;10.010;2023-05-01T14:10:35;100930.66;;;18.15;44.32
20444;BME280;10381;53.730;10.010;2023-05-01T14:14:46;100916.84;;;19.01;44.46
20444;BME280;10381;53.730;10.010;2023-05-01T14:18:48;100919.41;;;19.09;43.87
20444;BME280;10381;53.730;10.010;2023-05-01T14:22:48;100919.63;;;18.78;44.37
20444;BME280;10381;53.730;10.010;2023-05-01T14:26:51;100914.91;;;18.65;47.14
20444;BME280;10381;53.730;10.010;2023-05-01T14:30:51;100910.09;;;18.60;46.85
20444;BME280;10381;53.730;10.010;2023-05-01T14:34:53;100909.94;;;18.77;44.64
20444;BME280;10381;53.730;10.010;2023-05-01T14:39:01;100910.09;;;18.60;46.42
20444;BME280;10381;53.730;10.010;2023-05-01T14:43:02;100905.22;;;18.79;48.05
20444;BME280;10381;53.730;10.010;2023-05-01T14:47:07;100892.53;;;18.43;47.79
20444;BME280;10381;53.730;10.010;2023-05-01T14:51:11;100889.69;;;19.10;48.91
20444;BME280;10381;53.730;10.010;2023-05-01T14:55:11;100893.25;;;18.37;49.22
20444;BME280;10381;53.730;10.010;2023-05-01T14:59:13;100890.53;;;18.07;49.73
20444;BME280;10381;53.730;10.010;2023-05-01T15:03:13;100891.31;;;18.30;49.53
20444;BME280;10381;53.730;10.010;2023-05-01T15:07:13;100890.66;;;18.14;50.83
20444;BME280;10381;53.730;10.010;2023-05-01T15:11:14;100890.28;;;18.61;49.77
20444;BME280;10381;53.730;10.010;2023-05-01T15:15:15;100882.63;;;18.28;50.06
20444;BME280;10381;53.730;10.010;2023-05-01T15:19:16;100893.06;;;18.53;50.65
20444;BME280;10381;53.730;10.010;2023-05-01T15:23:17;100887.97;;;18.28;51.13
20444;BME280;10381;53.730;10.010;2023-05-01T15:27:18;100881.84;;;18.05;52.75
20444;BME280;10381;53.730;10.010;2023-05-01T15:31:18;100881.09;;;17.27;55.60
20444;BME280;10381;53.730;10.010;2023-05-01T15:35:18;100886.97;;;17.45;55.47
20444;BME280;10381;53.730;10.010;2023-05-01T15:39:20;100883.66;;;17.12;57.04
20444;BME280;10381;53.730;10.010;2023-05-01T15:43:21;100884.41;;;16.98;58.18
20444;BME280;10381;53.730;10.010;2023-05-01T15:47:22;100889.69;;;16.67;58.96
20444;BME280;10381;53.730;10.010;2023-05-01T15:51:22;100884.41;;;16.58;60.93
20444;BME280;10381;53.730;10.010;2023-05-01T15:55:23;100889.28;;;16.55;61.73
20444;BME280;10381;53.730;10.010;2023-05-01T15:59:23;100880.97;;;16.81;61.49
20444;BME280;10381;53.730;10.010;2023-05-01T16:03:24;100881.50;;;16.68;62.08
20444;BME280;10381;53.730;10.010;2023-05-01T16:07:27;100882.88;;;17.35;61.73
20444;BME280;10381;53.730;10.010;2023-05-01T16:11:29;100890.66;;;18.58;57.58
20444;BME280;10381;53.730;10.010;2023-05-01T16:15:29;100888.19;;;20.78;52.27
20444;BME280;10381;53.730;10.010;2023-05-01T16:19:30;100892.34;;;21.42;47.38
20444;BME280;10381;53.730;10.010;2023-05-01T16:23:32;100892.75;;;20.15;50.25
20444;BME280;10381;53.730;10.010;2023-05-01T16:27:33;100886.03;;;18.37;55.53
20444;BME280;10381;53.730;10.010;2023-05-01T16:31:43;100895.84;;;18.89;55.19
20444;BME280;10381;53.730;10.010;2023-05-01T16:35:46;100885.84;;;17.86;58.00
20444;BME280;10381;53.730;10.010;2023-05-01T16:39:50;100876.56;;;17.74;60.61
20444;BME280;10381;53.730;10.010;2023-05-01T16:43:50;100891.56;;;18.65;57.96
20444;BME280;10381;53.730;10.010;2023-05-01T16:47:51;100888.69;;;19.33;56.50
20444;BME280;10381;53.730;10.010;2023-05-01T16:51:52;100891.03;;;19.21;56.27
20444;BME280;10381;53.730;10.010;2023-05-01T16:55:56;100895.75;;;19.34;55.87
20444;BME280;10381;53.730;10.010;2023-05-01T16:59:56;100896.94;;;18.36;58.98
20444;BME280;10381;53.730;10.010;2023-05-01T17:03:57;100883.78;;;17.27;64.10
20444;BME280;10381;53.730;10.010;2023-05-01T17:07:57;100887.22;;;17.04;67.77
20444;BME280;10381;53.730;10.010;2023-05-01T17:11:57;100875.78;;;16.32;74.23
20444;BME280;10381;53.730;10.010;2023-05-01T17:15:58;100876.34;;;15.70;79.50
20444;BME280;10381;53.730;10.010;2023-05-01T17:19:58;100878.19;;;16.02;75.16
20444;BME280;10381;53.730;10.010;2023-05-01T17:23:59;100883.44;;;16.35;69.71
20444;BME280;10381;53.730;10.010;2023-05-01T17:28:00;100876.19;;;15.96;72.96
20444;BME280;10381;53.730;10.010;2023-05-01T17:32:00;100887.66;;;15.55;76.92
20444;BME280;10381;53.730;10.010;2023-05-01T17:36:00;100898.56;;;15.79;71.83
20444;BME280;10381;53.730;10.010;2023-05-01T17:40:02;100911.88;;;15.54;70.61
20444;BME280;10381;53.730;10.010;2023-05-01T17:44:04;100915.72;;;15.01;72.65
20444;BME280;10381;53.730;10.010;2023-05-01T17:48:04;100920.81;;;14.78;73.17
20444;BME280;10381;53.730;10.010;2023-05-01T17:52:05;100912.72;;;14.61;75.08
20444;BME280;10381;53.730;10.010;2023-05-01T17:56:05;100918.75;;;14.45;74.34
20444;BME280;10381;53.730;10.010;2023-05-01T18:00:09;100919.44;;;14.21;74.97
20444;BME280;10381;53.730;10.010;2023-05-01T18:04:12;100913.56;;;14.10;76.11
20444;BME280;10381;53.730;10.010;2023-05-01T18:08:12;100913.72;;;13.90;78.45
20444;BME280;10381;53.730;10.010;2023-05-01T18:12:13;100917.63;;;13.78;78.66
20444;BME280;10381;53.730;10.010;2023-05-01T18:16:14;100914.84;;;13.61;81.14
20444;BME280;10381;53.730;10.010;2023-05-01T18:20:15;100915.50;;;13.46;83.23
20444;BME280;10381;53.730;10.010;2023-05-01T18:24:15;100917.84;;;13.31;83.11
20444;BME280;10381;53.730;10.010;2023-05-01T18:28:15;100918.22;;;13.08;86.26
20444;BME280;10381;53.730;10.010;2023-05-01T18:32:17;100913.38;;;12.66;100.00
20444;BME280;10381;53.730;10.010;2023-05-01T18:36:17;100924.09;;;12.47;100.00
20444;BME280;10381;53.730;10.010;2023-05-01T18:40:18;100926.44;;;12.50;100.00
20444;BME280;10381;53.730;10.010;2023-05-01T18:44:18;100943.78;;;12.54;98.10
20444;BME280;10381;53.730;10.010;2023-05-01T18:48:18;100939.63;;;12.42;98.33
20444;BME280;10381;53.730;10.010;2023-05-01T18:52:19;100938.16;;;12.10;100.00
20444;BME280;10381;53.730;10.010;2023-05-01T18:56:19;100932.00;;;11.90;100.00
20444;BME280;10381;53.730;10.010;2023-05-01T19:00:20;100937.19;;;11.91;100.00
20444;BME280;10381;53.730;10.010;2023-05-01T19:04:20;100931.97;;;11.70;100.00
20444;BME280;10381;53.730;10.010;2023-05-01T19:08:20;100942.97;;;11.27;100.00
20444;BME280;10381;53.730;10.010;2023-05-01T19:12:20;100939.59;;;11.25;100.00
20444;BME280;10381;53.730;10.010;2023-05-01T19:16:21;100957.47;;;11.23;100.00
20444;BME280;10381;53.730;10.010;2023-05-01T19:20:21;100954.38;;;11.18;100.00
20444;BME280;10381;53.730;10.010;2023-05-01T19:24:21;100955.13;;;10.89;100.00
20444;BME280;10381;53.730;10.010;2023-05-01T19:28:22;100961.75;;;10.74;100.00
20444;BME280;10381;53.730;10.010;2023-05-01T19:32:22;100962.06;;;10.50;100.00
20444;BME280;10381;53.730;10.010;2023-05-01T19:36:22;100962.50;;;10.34;100.00
20444;BME280;10381;53.730;10.010;2023-05-01T19:40:23;100958.91;;;9.81;100.00
20444;BME280;10381;53.730;10.010;2023-05-01T19:44:23;100963.06;;;9.52;100.00
20444;BME280;10381;53.730;10.010;2023-05-01T19:48:24;100974.75;;;9.49;100.00
20444;BME280;10381;53.730;10.010;2023-05-01T19:52:24;100971.69;;;9.65;100.00
20444;BME280;10381;53.730;10.010;2023-05-01T19:56:24;100978.22;;;9.50;100.00
20444;BME280;10381;53.730;10.010;2023-05-01T20:00:25;100975.28;;;9.75;100.00
20444;BME280;10381;53.730;10.010;2023-05-01T20:04:27;100978.81;;;9.65;100.00
20444;BME280;10381;53.730;10.010;2023-05-01T20:08:27;100982.28;;;9.65;100.00
20444;BME280;10381;53.730;10.010;2023-05-01T20:12:27;100988.00;;;9.27;100.00
20444;BME280;10381;53.730;10.010;2023-05-01T20:16:28;100983.41;;;9.40;100.00
20444;BME280;10381;53.730;10.010;2023-05-01T20:20:29;100995.94;;;9.15;100.00
20444;BME280;10381;53.730;10.010;2023-05-01T20:24:30;100994.28;;;9.14;100.00
20444;BME280;10381;53.730;10.010;2023-05-01T20:28:31;101001.66;;;9.54;100.00
20444;BME280;10381;53.730;10.010;2023-05-01T20:32:31;101007.56;;;9.35;100.00
20444;BME280;10381;53.730;10.010;2023-05-01T20:36:32;101008.44;;;9.25;100.00
20444;BME280;10381;53.730;10.010;2023-05-01T20:40:32;101014.94;;;9.09;100.00
20444;BME280;10381;53.730;10.010;2023-05-01T20:44:33;101002.19;;;9.03;100.00
20444;BME280;10381;53.730;10.010;2023-05-01T20:48:33;101014.91;;;9.32;100.00
20444;BME280;10381;53.730;10.010;2023-05-01T20:52:33;101012.38;;;9.30;100.00
20444;BME280;10381;53.730;10.010;2023-05-01T20:56:34;101015.13;;;9.40;100.00
20444;BME280;10381;53.730;10.010;2023-05-01T21:00:34;101020.00;;;9.24;100.00
20444;BME280;10381;53.730;10.010;2023-05-01T21:04:35;101019.84;;;8.91;100.00